Time;durP1;ratioP1;P1;durP2;ratioP2;P2;SDS_P1;SDS_P2;PMS_P1;PMS_P2;Temp;Humidity;BMP_temperature;BMP_pressure;BME280_temperature;BME280_humidity;BME280_pressure;Samples;Min_cycle;Max_cycle;Signal;HPM_P1;HPM_P2
2023/05/05 00:01:24;;;;;;;6.40;3.30;;;;;;;13.07;55.39;101049.38;105342;1257;60377;-45
2023/05/05 00:03:51;;;;;;;9.60;3.60;;;;;;;13.05;55.36;101047.30;104657;1257;68102;-45
2023/05/05 00:06:18;;;;;;;5.80;3.80;;;;;;;13.02;55.43;101053.80;104666;1257;63947;-46
2023/05/05 00:08:45;;;;;;;7.00;3.20;;;;;;;13.00;55.43;101056.48;104560;1262;66524;-45
2023/05/05 00:11:12;;;;;;;7.90;3.50;;;;;;;12.97;55.45;101054.77;104731;1260;61399;-46
2023/05/05 00:13:39;;;;;;;6.50;3.10;;;;;;;12.94;55.50;101052.68;104684;1260;60481;-46
2023/05/05 00:16:06;;;;;;;7.00;2.80;;;;;;;12.97;55.56;101051.00;104620;1262;69437;-44
2023/05/05 00:18:33;;;;;;;6.20;3.20;;;;;;;13.06;55.49;101049.48;105053;1256;63724;-46
2023/05/05 00:21:00;;;;;;;7.10;3.70;;;;;;;13.11;55.44;101047.98;104573;1258;77786;-46
2023/05/05 00:23:27;;;;;;;6.60;3.90;;;;;;;13.12;55.43;101052.11;104593;1260;60511;-45
2023/05/05 00:25:54;;;;;;;7.00;3.70;;;;;;;13.13;55.44;101051.19;105993;1257;60485;-46
2023/05/05 00:28:21;;;;;;;7.80;3.50;;;;;;;13.12;55.52;101054.24;106354;1260;66915;-45
2023/05/05 00:30:48;;;;;;;6.90;3.00;;;;;;;13.10;55.71;101054.04;105093;1260;62549;-45
2023/05/05 00:33:16;;;;;;;6.50;3.40;;;;;;;13.09;55.92;101055.92;104670;1260;65169;-46
2023/05/05 00:35:42;;;;;;;5.60;2.60;;;;;;;13.09;55.91;101055.23;104627;1255;60590;-45
2023/05/05 00:38:09;;;;;;;7.20;2.70;;;;;;;13.08;55.93;101054.77;104490;1260;60536;-46
2023/05/05 00:40:37;;;;;;;6.80;3.10;;;;;;;13.06;55.71;101054.60;104664;1260;67306;-45
2023/05/05 00:43:04;;;;;;;7.60;2.80;;;;;;;13.03;55.53;101055.13;105961;1259;71711;-45
2023/05/05 00:45:31;;;;;;;4.80;2.20;;;;;;;13.01;55.59;101056.55;105204;1261;65901;-46
2023/05/05 00:47:59;;;;;;;4.40;1.90;;;;;;;13.03;55.38;101057.81;104477;1262;60670;-45
2023/05/05 00:50:28;;;;;;;5.00;2.50;;;;;;;13.05;55.17;101059.20;106176;1260;60529;-45
2023/05/05 00:52:59;;;;;;;5.90;2.60;;;;;;;13.05;55.08;101057.67;106174;1260;67031;-47
2023/05/05 00:55:27;;;;;;;5.70;2.60;;;;;;;13.03;54.95;101053.56;105739;1260;62750;-46
2023/05/05 00:57:55;;;;;;;5.40;2.60;;;;;;;12.99;54.88;101051.44;105080;1260;65334;-44
2023/05/05 01:00:23;;;;;;;6.80;2.30;;;;;;;12.94;55.15;101050.75;108641;1261;59791;-46
2023/05/05 01:02:51;;;;;;;6.30;2.80;;;;;;;12.90;55.29;101048.06;107360;1256;60538;-47
2023/05/05 01:05:19;;;;;;;4.70;2.40;;;;;;;12.87;55.42;101047.80;105112;1267;66262;-45
2023/05/05 01:08:01;;;;;;;5.90;2.70;;;;;;;12.84;55.70;101042.20;105101;1263;63098;-45
2023/05/05 01:10:48;;;;;;;4.80;2.60;;;;;;;12.80;55.94;101039.34;106986;1260;66181;-45
2023/05/05 01:13:41;;;;;;;5.40;2.40;;;;;;;12.77;55.91;101036.45;104842;1262;61662;-45
2023/05/05 01:16:11;;;;;;;5.20;2.40;;;;;;;12.80;55.62;101040.27;105128;1260;60550;-47
2023/05/05 01:18:44;;;;;;;5.20;2.30;;;;;;;12.84;55.65;101036.76;105089;1262;67513;-47
2023/05/05 01:21:27;;;;;;;4.70;2.40;;;;;;;12.85;55.66;101034.40;105001;1260;64211;-46
2023/05/05 01:24:16;;;;;;;6.10;3.00;;;;;;;12.84;55.63;101035.34;105058;1260;65991;-47
2023/05/05 01:27:21;;;;;;;7.30;2.60;;;;;;;12.80;55.69;101029.27;105128;1261;60550;-47
2023/05/05 01:29:54;;;;;;;6.40;3.20;;;;;;;12.78;55.83;101027.03;105190;1257;60687;-45
2023/05/05 01:32:27;;;;;;;5.80;3.00;;;;;;;12.76;56.00;101029.44;105051;1258;66283;-46
2023/05/05 01:35:00;;;;;;;6.80;3.40;;;;;;;12.74;56.10;101029.26;105706;1263;64114;-44
2023/05/05 01:37:44;;;;;;;5.20;2.80;;;;;;;12.70;56.24;101028.17;105111;1260;74485;-47
2023/05/05 01:40:11;;;;;;;5.90;3.10;;;;;;;12.66;56.54;101033.09;106186;1262;59413;-45
2023/05/05 01:42:40;;;;;;;5.80;2.90;;;;;;;12.62;56.73;101036.86;105131;1262;61639;-45
2023/05/05 01:45:08;;;;;;;5.80;2.80;;;;;;;12.64;56.55;101035.66;105034;1264;67354;-44
2023/05/05 01:47:35;;;;;;;6.20;2.90;;;;;;;12.67;56.66;101034.09;108738;1256;65032;-45
2023/05/05 01:50:02;;;;;;;6.90;2.90;;;;;;;12.67;56.62;101029.48;108644;1263;66457;-45
2023/05/05 01:52:29;;;;;;;6.30;3.00;;;;;;;12.67;56.77;101032.64;107019;1262;60645;-45
2023/05/05 01:54:57;;;;;;;7.40;3.50;;;;;;;12.66;56.93;101031.31;104546;1257;60478;-45
2023/05/05 01:57:26;;;;;;;7.60;4.20;;;;;;;12.65;57.15;101026.10;104493;1260;67847;-46
2023/05/05 01:59:52;;;;;;;6.60;4.10;;;;;;;12.62;57.23;101024.77;104447;1263;63168;-49
2023/05/05 02:02:20;;;;;;;8.60;4.00;;;;;;;12.58;57.37;101022.62;104558;1260;66427;-46
2023/05/05 02:04:46;;;;;;;6.20;3.40;;;;;;;12.59;57.57;101021.45;104519;1262;60568;-46
2023/05/05 02:07:14;;;;;;;8.40;4.30;;;;;;;12.63;57.73;101023.95;104383;1257;60435;-46
2023/05/05 02:09:42;;;;;;;7.50;4.00;;;;;;;12.64;57.74;101025.31;107296;1257;67434;-45
2023/05/05 02:12:09;;;;;;;8.00;4.00;;;;;;;12.62;57.89;101027.94;104388;1262;63361;-47
2023/05/05 02:14:35;;;;;;;6.40;3.80;;;;;;;12.60;58.17;101028.77;104445;1258;66271;-46
2023/05/05 02:17:02;;;;;;;6.70;3.70;;;;;;;12.58;58.33;101027.16;104559;1263;60478;-46
2023/05/05 02:19:33;;;;;;;7.90;3.70;;;;;;;12.54;58.28;101029.20;104516;1262;60449;-45
2023/05/05 02:22:00;;;;;;;6.40;3.00;;;;;;;12.49;58.40;101031.73;105142;1262;67566;-45
2023/05/05 02:24:27;;;;;;;6.60;2.90;;;;;;;12.42;58.51;101030.14;104541;1257;62807;-45
2023/05/05 02:26:54;;;;;;;6.30;2.90;;;;;;;12.43;58.66;101032.17;104276;1263;66208;-45
2023/05/05 02:29:34;;;;;;;8.90;2.90;;;;;;;12.45;58.88;101034.11;104659;1262;62689;-46
2023/05/05 02:32:08;;;;;;;6.40;2.60;;;;;;;12.44;59.00;101031.45;104621;1255;60524;-45
2023/05/05 02:34:36;;;;;;;6.30;2.90;;;;;;;12.42;58.94;101032.30;104717;1263;66410;-45
2023/05/05 02:37:07;;;;;;;5.60;2.60;;;;;;;12.38;58.87;101030.28;106683;1258;64014;-46
2023/05/05 02:39:39;;;;;;;5.50;2.70;;;;;;;12.35;58.85;101031.45;104420;1259;66388;-45
2023/05/05 02:42:10;;;;;;;7.10;2.70;;;;;;;12.35;58.77;101034.58;108750;1256;58308;-46
2023/05/05 02:44:36;;;;;;;4.80;2.20;;;;;;;12.40;58.91;101034.74;105094;1257;60432;-46
2023/05/05 02:47:03;;;;;;;5.60;2.30;;;;;;;12.44;58.96;101028.80;104290;1263;67325;-47
2023/05/05 02:49:31;;;;;;;5.70;2.70;;;;;;;12.47;59.02;101028.74;104610;1258;63551;-46
2023/05/05 02:51:58;;;;;;;5.90;2.60;;;;;;;12.46;58.89;101036.37;104674;1261;66182;-43
2023/05/05 02:54:29;;;;;;;7.40;3.30;;;;;;;12.44;59.12;101037.55;105903;1257;60466;-47
2023/05/05 02:56:57;;;;;;;5.90;2.50;;;;;;;12.42;59.29;101033.86;104365;1265;60340;-45
2023/05/05 02:59:33;;;;;;;6.70;2.70;;;;;;;12.41;59.39;101036.06;104607;1263;67563;-46
2023/05/05 03:02:13;;;;;;;7.50;3.10;;;;;;;12.45;59.57;101038.20;105604;1257;62904;-45
2023/05/05 03:04:47;;;;;;;5.90;3.50;;;;;;;12.51;59.82;101043.71;106894;1260;66185;-46
2023/05/05 03:07:38;;;;;;;8.50;4.30;;;;;;;12.54;59.99;101042.31;104942;1263;60469;-46
2023/05/05 03:10:07;;;;;;;7.00;4.70;;;;;;;12.55;60.18;101040.63;105105;1254;60367;-46
2023/05/05 03:12:58;;;;;;;9.30;6.00;;;;;;;12.54;60.30;101038.57;105283;1264;67040;-46
2023/05/05 03:15:35;;;;;;;7.40;4.90;;;;;;;12.47;60.57;101037.70;107825;1257;63386;-46
2023/05/05 03:18:02;;;;;;;6.80;3.30;;;;;;;12.38;60.74;101041.55;108679;1258;65972;-46
2023/05/05 03:20:29;;;;;;;6.60;3.50;;;;;;;12.31;60.92;101040.71;105569;1262;61748;-46
2023/05/05 03:22:57;;;;;;;6.50;4.00;;;;;;;12.21;61.36;101043.58;106396;1262;60299;-44
2023/05/05 03:25:49;;;;;;;6.50;3.80;;;;;;;12.11;61.75;101048.40;105016;1260;65990;-47
2023/05/05 03:28:26;;;;;;;7.60;3.40;;;;;;;12.02;62.05;101056.77;105074;1258;63686;-47
2023/05/05 03:30:53;;;;;;;7.80;3.80;;;;;;;12.00;62.22;101060.11;105025;1258;66316;-47
2023/05/05 03:33:21;;;;;;;6.10;3.30;;;;;;;12.19;61.96;101062.89;105909;1257;60790;-47
2023/05/05 03:35:48;;;;;;;7.30;3.40;;;;;;;12.14;61.89;101059.38;106568;1260;60393;-47
2023/05/05 03:38:16;;;;;;;10.20;5.00;;;;;;;11.95;62.48;101061.71;105016;1263;67217;-47
2023/05/05 03:40:44;;;;;;;10.50;6.20;;;;;;;11.89;62.70;101061.42;104972;1258;63900;-47
2023/05/05 03:43:14;;;;;;;8.60;5.80;;;;;;;11.90;62.55;101059.61;104610;1257;66255;-47
2023/05/05 03:45:41;;;;;;;10.60;7.20;;;;;;;11.92;62.64;101055.28;104954;1257;60566;-47
2023/05/05 03:48:09;;;;;;;11.70;7.40;;;;;;;12.00;62.53;101056.23;105380;1261;61090;-47
2023/05/05 03:50:37;;;;;;;10.10;7.20;;;;;;;12.14;62.25;101054.13;105003;1260;67356;-47
2023/05/05 03:53:04;;;;;;;10.50;6.80;;;;;;;12.01;62.44;101055.96;104612;1260;64040;-47
2023/05/05 03:55:31;;;;;;;9.90;6.30;;;;;;;11.89;62.57;101064.42;105805;1257;65128;-46
2023/05/05 03:57:58;;;;;;;9.20;6.30;;;;;;;11.87;62.82;101066.64;106074;1257;60620;-46
2023/05/05 04:00:26;;;;;;;9.40;6.50;;;;;;;11.94;62.85;101072.13;105207;1261;60518;-45
2023/05/05 04:02:53;;;;;;;10.30;6.60;;;;;;;11.99;62.98;101073.73;104666;1254;69852;-45
2023/05/05 04:05:21;;;;;;;8.20;6.30;;;;;;;12.01;62.81;101075.17;107119;1257;63630;-45
2023/05/05 04:07:49;;;;;;;8.00;5.40;;;;;;;11.96;62.42;101075.16;105393;1260;66255;-46
2023/05/05 04:10:16;;;;;;;7.80;5.50;;;;;;;11.88;62.23;101077.15;105497;1258;60584;-46
2023/05/05 04:12:43;;;;;;;8.70;5.20;;;;;;;11.88;62.35;101080.26;104614;1263;60444;-46
2023/05/05 04:15:10;;;;;;;9.40;5.40;;;;;;;11.93;62.26;101080.69;104580;1260;67703;-48
2023/05/05 04:17:38;;;;;;;9.50;5.70;;;;;;;11.95;62.29;101082.11;108687;1258;62365;-47
2023/05/05 04:20:06;;;;;;;8.80;4.90;;;;;;;12.00;62.33;101083.16;105468;1260;65826;-47
2023/05/05 04:22:33;;;;;;;7.00;4.30;;;;;;;12.04;62.24;101081.30;106834;1258;60523;-46
2023/05/05 04:25:01;;;;;;;6.70;4.00;;;;;;;12.04;61.96;101077.55;107017;1261;60589;-46
2023/05/05 04:27:29;;;;;;;6.40;3.50;;;;;;;12.02;61.49;101080.48;106424;1257;67666;-45
2023/05/05 04:29:56;;;;;;;6.50;3.50;;;;;;;12.04;61.37;101079.81;105056;1256;63537;-45
2023/05/05 04:32:24;;;;;;;5.80;3.50;;;;;;;12.02;61.31;101079.81;105197;1261;66537;-46
2023/05/05 04:34:51;;;;;;;7.10;3.00;;;;;;;11.98;61.44;101079.22;105150;1263;60547;-47
2023/05/05 04:37:18;;;;;;;6.00;3.20;;;;;;;11.95;61.31;101074.19;106375;1256;60529;-47
2023/05/05 04:39:45;;;;;;;5.30;2.80;;;;;;;11.92;61.33;101071.80;104984;1265;67341;-47
2023/05/05 04:42:12;;;;;;;7.00;3.00;;;;;;;11.93;61.43;101071.36;105056;1261;62775;-45
2023/05/05 04:44:39;;;;;;;5.70;2.50;;;;;;;11.99;61.51;101073.03;108337;1257;66591;-46
2023/05/05 04:47:07;;;;;;;6.20;2.90;;;;;;;12.07;61.18;101075.52;104599;1257;61033;-46
2023/05/05 04:49:34;;;;;;;8.40;3.00;;;;;;;12.12;60.82;101086.81;105007;1260;59387;-45
2023/05/05 04:52:01;;;;;;;5.30;2.60;;;;;;;12.14;60.81;101098.31;108652;1257;77114;-46
2023/05/05 04:54:28;;;;;;;5.60;2.90;;;;;;;12.17;60.84;101101.73;108706;1256;62790;-46
2023/05/05 04:56:56;;;;;;;7.10;3.40;;;;;;;12.20;60.88;101104.52;108664;1256;66185;-46
2023/05/05 04:59:23;;;;;;;5.90;2.80;;;;;;;12.24;60.64;101105.63;108758;1257;58178;-46
2023/05/05 05:01:50;;;;;;;5.90;3.00;;;;;;;12.25;60.32;101105.92;108739;1257;61637;-46
2023/05/05 05:04:17;;;;;;;6.60;3.10;;;;;;;12.30;60.20;101107.28;108684;1256;68163;-46
2023/05/05 05:06:44;;;;;;;6.00;2.80;;;;;;;12.39;59.79;101103.63;108732;1258;63830;-46
2023/05/05 05:09:11;;;;;;;6.10;2.80;;;;;;;12.44;59.49;101103.04;108670;1257;66126;-49
2023/05/05 05:11:38;;;;;;;6.60;3.30;;;;;;;12.49;59.55;101102.13;108685;1256;58368;-46
2023/05/05 05:14:05;;;;;;;6.80;2.90;;;;;;;12.55;59.44;101109.60;108800;1256;58497;-46
2023/05/05 05:16:32;;;;;;;8.90;3.40;;;;;;;12.58;58.88;101109.73;107755;1258;67824;-45
2023/05/05 05:18:59;;;;;;;5.70;3.00;;;;;;;12.59;58.80;101113.29;105035;1261;63644;-45
2023/05/05 05:21:28;;;;;;;5.40;2.80;;;;;;;12.57;58.75;101115.77;104939;1257;66653;-46
2023/05/05 05:23:55;;;;;;;8.80;3.30;;;;;;;12.58;58.96;101116.92;106422;1260;60785;-45
2023/05/05 05:26:23;;;;;;;6.60;3.10;;;;;;;12.66;58.89;101120.53;104998;1262;60450;-45
2023/05/05 05:28:50;;;;;;;8.40;3.50;;;;;;;12.75;58.14;101119.14;105085;1256;67067;-45
2023/05/05 05:31:17;;;;;;;5.40;2.70;;;;;;;12.79;57.52;101122.91;104960;1263;62845;-45
2023/05/05 05:33:45;;;;;;;6.70;2.80;;;;;;;12.77;57.47;101124.65;105007;1261;67599;-45
2023/05/05 05:36:12;;;;;;;8.40;3.50;;;;;;;12.74;57.50;101126.47;108716;1257;59938;-46
2023/05/05 05:38:39;;;;;;;9.80;3.10;;;;;;;12.73;57.91;101133.20;107571;1258;60443;-46
2023/05/05 05:41:06;;;;;;;6.20;2.90;;;;;;;12.74;57.86;101137.20;104943;1257;67502;-46
2023/05/05 05:43:34;;;;;;;6.50;2.90;;;;;;;12.74;57.85;101134.93;105065;1260;63885;-45
2023/05/05 05:46:02;;;;;;;5.60;2.40;;;;;;;12.72;57.73;101126.92;105090;1260;66113;-45
2023/05/05 05:48:29;;;;;;;5.60;2.70;;;;;;;12.71;57.66;101120.88;105028;1260;60482;-45
2023/05/05 05:50:57;;;;;;;5.20;2.30;;;;;;;12.76;57.70;101114.52;107253;1254;60568;-46
2023/05/05 05:53:24;;;;;;;4.50;2.30;;;;;;;12.78;56.92;101114.55;105772;1257;67185;-45
2023/05/05 05:55:51;;;;;;;4.80;2.40;;;;;;;12.73;56.84;101115.62;104967;1262;62715;-45
2023/05/05 05:58:18;;;;;;;6.30;2.80;;;;;;;12.69;57.11;101116.63;106636;1257;68637;-45
2023/05/05 06:00:47;;;;;;;5.00;2.50;;;;;;;12.68;57.47;101121.64;107310;1255;209063;-45
2023/05/05 06:05:36;;;;;;;5.50;2.70;;;;;;;12.53;57.77;101121.40;101912;1293;601305;-47
2023/05/05 06:08:03;;;;;;;5.90;2.80;;;;;;;12.68;57.00;101122.48;108222;1266;57245;-45
2023/05/05 06:10:31;;;;;;;7.10;2.80;;;;;;;12.71;56.77;101125.46;106330;1267;59362;-45
2023/05/05 06:13:03;;;;;;;6.30;2.70;;;;;;;12.71;56.93;101123.16;104406;1272;65559;-45
2023/05/05 06:15:30;;;;;;;5.00;2.40;;;;;;;12.80;56.50;101127.94;108048;1267;64005;-45
2023/05/05 06:17:58;;;;;;;5.20;1.90;;;;;;;12.91;56.23;101128.30;104246;1267;203766;-46
2023/05/05 06:20:25;;;;;;;5.80;2.00;;;;;;;13.02;55.70;101128.14;105289;1267;59179;-45
2023/05/05 06:22:52;;;;;;;5.70;1.80;;;;;;;13.14;55.51;101129.45;104495;1269;59193;-45
2023/05/05 06:25:20;;;;;;;4.00;1.80;;;;;;;13.28;54.34;101129.79;104614;1270;64633;-46
2023/05/05 06:27:47;;;;;;;4.70;1.80;;;;;;;13.36;53.20;101129.75;104561;1264;72587;-47
2023/05/05 06:30:14;;;;;;;4.70;1.80;;;;;;;13.40;52.94;101130.98;104538;1264;66294;-45
2023/05/05 06:32:41;;;;;;;5.90;1.90;;;;;;;13.46;52.93;101131.95;104659;1264;59693;-45
2023/05/05 06:35:08;;;;;;;4.60;1.60;;;;;;;13.50;53.65;101133.35;105373;1264;59463;-47
2023/05/05 06:37:35;;;;;;;4.60;1.80;;;;;;;13.55;53.77;101130.65;105063;1267;65665;-47
2023/05/05 06:40:03;;;;;;;3.80;1.90;;;;;;;13.63;53.30;101128.09;104601;1269;63062;-46
2023/05/05 06:42:31;;;;;;;4.80;2.00;;;;;;;13.70;52.96;101123.30;108367;1263;66452;-47
2023/05/05 06:45:01;;;;;;;7.20;2.00;;;;;;;13.73;52.47;101121.13;108146;1264;59410;-45
2023/05/05 06:47:28;;;;;;;5.50;1.70;;;;;;;13.71;51.62;101121.30;104080;1269;59849;-47
2023/05/05 06:49:55;;;;;;;4.60;1.80;;;;;;;13.67;51.32;101121.44;104526;1261;66602;-46
2023/05/05 06:52:22;;;;;;;3.90;1.60;;;;;;;13.65;51.54;101120.70;104734;1269;62674;-46
2023/05/05 06:54:49;;;;;;;5.00;1.80;;;;;;;13.68;51.55;101119.58;104624;1269;66161;-47
2023/05/05 06:57:16;;;;;;;5.90;1.80;;;;;;;13.75;51.32;101118.81;106802;1254;59547;-47
2023/05/05 06:59:43;;;;;;;9.70;1.70;;;;;;;13.79;51.08;101119.92;105145;1260;59640;-47
2023/05/05 07:02:10;;;;;;;4.70;1.60;;;;;;;13.82;51.18;101115.81;105146;1260;66600;-47
2023/05/05 07:04:37;;;;;;;7.10;1.80;;;;;;;13.88;51.03;101119.53;105078;1257;63783;-46
2023/05/05 07:07:04;;;;;;;5.50;1.60;;;;;;;13.92;50.49;101120.10;105105;1262;65273;-47
2023/05/05 07:09:31;;;;;;;5.90;2.00;;;;;;;13.97;50.13;101119.00;105112;1260;59768;-47
2023/05/05 07:11:58;;;;;;;4.20;1.60;;;;;;;14.03;49.50;101122.75;105141;1258;59829;-46
2023/05/05 07:14:25;;;;;;;5.40;2.00;;;;;;;14.05;49.34;101125.95;105091;1261;66644;-46
2023/05/05 07:16:52;;;;;;;3.90;1.40;;;;;;;14.07;49.13;101128.36;106160;1262;63758;-46
2023/05/05 07:19:19;;;;;;;4.90;1.50;;;;;;;14.13;48.83;101128.04;104731;1260;66189;-45
2023/05/05 07:21:46;;;;;;;5.10;1.60;;;;;;;14.22;48.69;101123.26;104907;1257;59755;-46
2023/05/05 07:24:13;;;;;;;4.70;1.70;;;;;;;14.30;48.73;101119.23;105122;1260;59241;-45
2023/05/05 07:26:40;;;;;;;3.80;1.40;;;;;;;14.38;48.05;101119.32;105117;1260;66328;-45
2023/05/05 07:29:07;;;;;;;4.30;1.60;;;;;;;14.44;48.00;101119.63;106099;1260;63943;-46
2023/05/05 07:31:34;;;;;;;3.80;1.50;;;;;;;14.53;48.22;101116.57;105109;1269;65122;-45
2023/05/05 07:34:01;;;;;;;5.30;1.50;;;;;;;14.66;47.89;101116.58;105004;1263;59727;-47
2023/05/05 07:36:28;;;;;;;4.40;1.60;;;;;;;14.75;46.44;101116.52;104563;1258;59848;-45
2023/05/05 07:38:55;;;;;;;6.70;1.60;;;;;;;14.75;45.88;101115.25;104581;1263;66286;-46
2023/05/05 07:41:22;;;;;;;4.40;1.60;;;;;;;14.77;45.61;101117.08;106311;1260;63347;-47
2023/05/05 07:43:49;;;;;;;5.30;1.40;;;;;;;14.81;45.40;101118.16;105690;1260;64934;-45
2023/05/05 07:46:16;;;;;;;4.60;1.40;;;;;;;14.86;45.21;101119.27;104515;1263;60377;-46
2023/05/05 07:48:43;;;;;;;4.30;1.70;;;;;;;14.88;44.44;101114.85;104613;1260;59641;-45
2023/05/05 07:51:10;;;;;;;3.40;1.50;;;;;;;14.88;44.67;101111.20;104601;1261;65236;-46
2023/05/05 07:53:37;;;;;;;3.80;1.50;;;;;;;14.91;44.97;101115.17;107495;1257;63715;-46
2023/05/05 07:56:05;;;;;;;3.70;1.30;;;;;;;14.97;44.74;101117.27;105091;1263;66129;-46
2023/05/05 07:58:32;;;;;;;4.70;1.50;;;;;;;15.02;44.53;101122.44;104714;1263;60398;-47
2023/05/05 08:01:00;;;;;;;5.20;1.90;;;;;;;15.07;44.54;101122.98;104657;1263;59701;-47
2023/05/05 08:03:27;;;;;;;4.40;1.60;;;;;;;15.11;44.67;101119.45;104637;1255;66451;-44
2023/05/05 08:05:55;;;;;;;3.60;1.40;;;;;;;15.13;44.70;101117.63;104710;1260;63667;-44
2023/05/05 08:08:23;;;;;;;9.90;1.50;;;;;;;15.14;44.21;101116.90;106337;1260;65875;-45
2023/05/05 08:10:51;;;;;;;4.10;1.40;;;;;;;15.17;44.56;101117.49;108227;1257;59316;-47
2023/05/05 08:13:19;;;;;;;3.90;1.40;;;;;;;15.24;44.39;101122.48;104757;1257;58584;-46
2023/05/05 08:15:46;;;;;;;4.80;1.70;;;;;;;15.30;43.91;101123.06;104712;1262;66478;-46
2023/05/05 08:18:13;;;;;;;5.20;1.60;;;;;;;15.36;43.50;101120.02;104667;1260;64063;-46
2023/05/05 08:20:40;;;;;;;4.80;1.30;;;;;;;15.43;43.28;101120.48;104675;1257;66416;-46
2023/05/05 08:23:07;;;;;;;5.40;1.30;;;;;;;15.45;43.35;101119.60;105674;1254;60157;-47
2023/05/05 08:25:34;;;;;;;7.10;1.70;;;;;;;15.45;43.51;101117.48;105151;1260;59724;-46
2023/05/05 08:28:01;;;;;;;6.00;1.70;;;;;;;15.46;42.66;101115.30;104700;1260;75127;-45
2023/05/05 08:30:28;;;;;;;4.30;1.50;;;;;;;15.45;42.41;101115.05;104570;1260;62744;-45
2023/05/05 08:32:55;;;;;;;6.00;2.00;;;;;;;15.43;42.31;101119.63;108047;1254;66162;-47
2023/05/05 08:35:22;;;;;;;3.80;1.60;;;;;;;15.40;42.03;101119.73;105479;1257;59764;-43
2023/05/05 08:37:50;;;;;;;4.20;1.30;;;;;;;15.37;41.81;101118.16;104744;1263;59715;-48
2023/05/05 08:40:17;;;;;;;6.30;1.50;;;;;;;15.37;41.93;101118.75;108775;1257;65293;-46
2023/05/05 08:42:45;;;;;;;5.10;1.60;;;;;;;15.37;41.85;101118.20;107424;1260;62596;-45
2023/05/05 08:45:12;;;;;;;4.00;1.30;;;;;;;15.43;42.02;101120.15;104679;1260;65869;-48
2023/05/05 08:47:42;;;;;;;4.50;1.70;;;;;;;15.53;42.47;101119.61;104580;1260;59703;-45
2023/05/05 08:50:10;;;;;;;6.50;1.90;;;;;;;15.70;42.36;101117.73;107102;1263;59364;-47
2023/05/05 08:52:42;;;;;;;3.80;1.40;;;;;;;15.86;42.01;101120.10;104881;1257;65913;-48
2023/05/05 08:55:19;;;;;;;5.90;1.70;;;;;;;15.96;41.58;101116.50;105181;1253;63587;-46
2023/05/05 08:57:55;;;;;;;;;;;;;;;16.05;42.17;101114.79;108549;1251;65169;-46
2023/05/05 09:00:23;;;;;;;;;;;;;;;16.14;41.74;101117.66;106607;1257;59595;-45
2023/05/05 09:02:50;;;;;;;4.30;1.30;;;;;;;16.16;41.05;101116.08;104918;1254;59791;-47
2023/05/05 09:05:17;;;;;;;4.40;1.70;;;;;;;16.15;40.28;101113.67;104986;1257;66597;-47
2023/05/05 09:07:45;;;;;;;5.00;1.60;;;;;;;16.11;39.96;101113.52;104928;1251;63650;-46
2023/05/05 09:10:12;;;;;;;3.40;1.30;;;;;;;16.09;39.97;101113.19;104750;1258;65214;-46
2023/05/05 09:12:40;;;;;;;3.80;1.50;;;;;;;16.09;39.57;101114.05;105034;1257;59558;-50
2023/05/05 09:15:11;;;;;;;4.40;1.50;;;;;;;16.12;39.39;101114.27;104929;1251;59746;-47
2023/05/05 09:17:39;;;;;;;4.60;1.60;;;;;;;16.20;39.64;101111.28;105260;1256;66719;-45
2023/05/05 09:20:07;;;;;;;3.60;1.40;;;;;;;16.26;38.74;101109.13;109175;1256;63971;-46
2023/05/05 09:22:38;;;;;;;4.70;1.60;;;;;;;16.38;37.76;101108.54;106123;1257;66558;-46
2023/05/05 09:25:07;;;;;;;3.60;1.30;;;;;;;16.50;38.15;101109.75;104959;1257;59768;-44
2023/05/05 09:27:40;;;;;;;5.50;1.90;;;;;;;16.61;38.21;101111.53;109173;1251;58103;-46
2023/05/05 09:30:08;;;;;;;4.10;1.60;;;;;;;16.68;38.36;101111.79;106274;1257;66647;-46
2023/05/05 09:33:01;;;;;;;4.80;1.40;;;;;;;16.76;39.00;101112.66;105425;1257;64321;-45
2023/05/05 09:35:29;;;;;;;5.00;1.60;;;;;;;16.85;39.27;101108.56;107995;1252;64684;-45
2023/05/05 09:37:55;;;;;;;4.60;1.50;;;;;;;16.98;39.28;101103.34;106525;1255;59799;-45
2023/05/05 09:40:22;;;;;;;3.90;1.50;;;;;;;17.13;38.96;101101.92;104704;1262;59650;-52
2023/05/05 09:43:00;;;;;;;6.10;1.90;;;;;;;17.11;38.68;101102.80;108375;1259;66509;-45
2023/05/05 09:45:27;;;;;;;5.90;1.20;;;;;;;17.10;38.67;101102.83;105282;1257;63310;-46
2023/05/05 09:47:53;;;;;;;4.90;1.70;;;;;;;17.11;38.00;101103.66;104892;1251;65289;-46
2023/05/05 09:50:28;;;;;;;5.60;1.70;;;;;;;17.07;38.11;101104.75;105370;1259;59754;-44
2023/05/05 09:52:58;;;;;;;4.70;1.80;;;;;;;17.05;38.21;101097.08;107372;1258;59403;-46
2023/05/05 09:55:25;;;;;;;3.80;1.70;;;;;;;17.16;38.57;101096.98;105915;1257;66584;-46
2023/05/05 09:57:52;;;;;;;6.20;1.90;;;;;;;17.17;38.37;101098.52;104843;1258;63568;-44
2023/05/05 10:00:19;;;;;;;4.10;1.50;;;;;;;17.24;38.16;101097.39;104913;1260;66560;-47
2023/05/05 10:02:46;;;;;;;4.90;1.60;;;;;;;17.37;37.22;101093.38;104818;1257;59646;-48
2023/05/05 10:05:13;;;;;;;3.80;1.30;;;;;;;17.39;37.32;101092.05;104892;1258;59697;-45
2023/05/05 10:07:42;;;;;;;4.00;1.70;;;;;;;17.41;37.64;101088.48;106141;1255;66634;-46
2023/05/05 10:10:13;;;;;;;4.60;2.00;;;;;;;17.48;37.97;101080.50;108694;1251;62372;-47
2023/05/05 10:12:41;;;;;;;4.20;1.20;;;;;;;17.57;37.14;101083.24;106058;1254;66564;-46
2023/05/05 10:15:09;;;;;;;3.70;1.20;;;;;;;17.56;36.59;101085.27;107793;1254;60492;-47
2023/05/05 10:17:46;;;;;;;7.20;1.50;;;;;;;17.53;36.21;101081.45;106161;1256;60460;-47
2023/05/05 10:20:32;;;;;;;3.90;1.30;;;;;;;17.52;35.76;101080.86;104905;1257;67249;-47
2023/05/05 10:22:59;;;;;;;5.30;1.60;;;;;;;17.50;35.73;101080.21;104851;1259;64489;-47
2023/05/05 10:25:32;;;;;;;4.20;1.20;;;;;;;17.50;35.85;101076.13;104862;1257;66097;-45
2023/05/05 10:28:00;;;;;;;2.90;1.30;;;;;;;17.51;36.20;101075.08;105103;1260;60600;-46
2023/05/05 10:30:33;;;;;;;4.60;1.50;;;;;;;17.54;36.07;101073.64;105202;1258;60651;-45
2023/05/05 10:33:08;;;;;;;4.20;1.80;;;;;;;17.54;35.93;101072.54;104939;1257;67758;-46
2023/05/05 10:35:56;;;;;;;3.90;1.40;;;;;;;17.59;36.13;101073.22;108240;1255;63520;-45
2023/05/05 10:38:22;;;;;;;2.90;1.00;;;;;;;17.72;36.10;101071.11;109167;1251;66025;-46
2023/05/05 10:40:52;;;;;;;3.70;1.30;;;;;;;17.89;36.19;101065.16;109001;1251;58656;-46
2023/05/05 10:43:19;;;;;;;4.20;1.50;;;;;;;18.04;35.16;101061.71;107782;1257;59452;-46
2023/05/05 10:45:46;;;;;;;4.40;1.20;;;;;;;18.16;35.14;101062.14;105004;1252;68706;-45
2023/05/05 10:48:17;;;;;;;4.30;1.20;;;;;;;18.27;35.54;101057.75;104840;1256;64333;-47
2023/05/05 10:50:48;;;;;;;4.90;1.60;;;;;;;18.41;35.38;101053.71;104938;1256;67359;-47
2023/05/05 10:53:27;;;;;;;3.40;1.00;;;;;;;18.55;35.13;101050.48;106794;1254;60495;-48
2023/05/05 10:56:25;;;;;;;4.00;1.00;;;;;;;18.72;35.13;101045.03;105037;1257;60807;-47
2023/05/05 10:58:52;;;;;;;5.10;1.30;;;;;;;18.86;34.70;101041.13;106007;1251;66077;-45
2023/05/05 11:01:33;;;;;;;5.20;1.30;;;;;;;18.96;34.62;101039.02;105771;1256;62742;-45
2023/05/05 11:04:19;;;;;;;3.10;1.20;;;;;;;19.01;33.60;101036.36;106225;1255;66496;-47
2023/05/05 11:07:05;;;;;;;;;;;;;;;19.02;33.51;101034.84;106305;1259;60512;-46
2023/05/05 11:09:37;;;;;;;4.10;1.50;;;;;;;18.99;32.92;101027.43;105372;1254;60492;-44
2023/05/05 11:12:05;;;;;;;3.90;1.50;;;;;;;19.04;33.17;101025.38;105361;1251;67316;-45
2023/05/05 11:14:32;;;;;;;4.70;1.30;;;;;;;19.19;33.61;101021.44;105449;1257;63585;-46
2023/05/05 11:16:59;;;;;;;3.00;1.30;;;;;;;19.40;33.44;101016.73;105364;1257;67274;-46
2023/05/05 11:19:42;;;;;;;4.90;1.50;;;;;;;19.58;33.08;101014.39;106773;1253;60430;-47
2023/05/05 11:22:09;;;;;;;4.50;1.70;;;;;;;19.72;32.38;101011.83;105384;1257;61618;-46
2023/05/05 11:24:38;;;;;;;3.30;1.40;;;;;;;19.85;32.13;101007.96;105428;1251;67064;-46
2023/05/05 11:27:05;;;;;;;4.10;1.30;;;;;;;19.97;31.99;101008.75;107960;1251;63515;-46
2023/05/05 11:30:06;;;;;;;5.10;1.40;;;;;;;20.05;31.85;101009.02;105308;1254;66003;-46